sensor_id;sensor_type;location;lat;lon;timestamp;P1;durP1;ratioP1;P2;durP2;ratioP2
10005;SDS011;5042;42.626;23.382;2023-11-21T00:00:45;3.67;;;3.37;;
10005;SDS011;5042;42.626;23.382;2023-11-21T00:03:12;3.87;;;3.20;;
10005;SDS011;5042;42.626;23.382;2023-11-21T00:05:40;3.60;;;3.30;;
10005;SDS011;5042;42.626;23.382;2023-11-21T00:08:07;4.13;;;3.43;;
10005;SDS011;5042;42.626;23.382;2023-11-21T00:10:34;3.70;;;3.37;;
10005;SDS011;5042;42.626;23.382;2023-11-21T00:13:19;4.07;;;3.63;;
10005;SDS011;5042;42.626;23.382;2023-11-21T00:15:47;5.67;;;3.50;;
10005;SDS011;5042;42.626;23.382;2023-11-21T00:18:14;3.73;;;3.30;;
10005;SDS011;5042;42.626;23.382;2023-11-21T00:20:41;4.80;;;3.53;;
10005;SDS011;5042;42.626;23.382;2023-11-21T00:23:08;4.00;;;3.30;;
10005;SDS011;5042;42.626;23.382;2023-11-21T00:25:35;4.77;;;3.77;;
10005;SDS011;5042;42.626;23.382;2023-11-21T00:28:02;4.80;;;3.77;;
10005;SDS011;5042;42.626;23.382;2023-11-21T00:30:29;4.23;;;3.50;;
10005;SDS011;5042;42.626;23.382;2023-11-21T00:32:58;4.40;;;3.57;;
10005;SDS011;5042;42.626;23.382;2023-11-21T00:35:25;4.30;;;3.50;;
10005;SDS011;5042;42.626;23.382;2023-11-21T00:37:52;4.13;;;3.73;;
10005;SDS011;5042;42.626;23.382;2023-11-21T00:40:18;4.90;;;3.70;;
10005;SDS011;5042;42.626;23.382;2023-11-21T00:42:46;4.97;;;3.50;;
10005;SDS011;5042;42.626;23.382;2023-11-21T00:45:13;4.67;;;3.83;;
10005;SDS011;5042;42.626;23.382;2023-11-21T00:47:40;3.90;;;3.50;;
10005;SDS011;5042;42.626;23.382;2023-11-21T00:50:09;4.43;;;3.67;;
10005;SDS011;5042;42.626;23.382;2023-11-21T00:52:36;4.10;;;3.70;;
10005;SDS011;5042;42.626;23.382;2023-11-21T00:55:03;4.43;;;3.20;;
10005;SDS011;5042;42.626;23.382;2023-11-21T00:57:30;6.10;;;3.97;;
10005;SDS011;5042;42.626;23.382;2023-11-21T00:59:57;4.23;;;3.83;;
10005;SDS011;5042;42.626;23.382;2023-11-21T01:02:24;5.10;;;3.90;;
10005;SDS011;5042;42.626;23.382;2023-11-21T01:04:50;4.87;;;4.37;;
10005;SDS011;5042;42.626;23.382;2023-11-21T01:07:19;4.90;;;4.40;;
10005;SDS011;5042;42.626;23.382;2023-11-21T01:09:46;5.80;;;5.13;;
10005;SDS011;5042;42.626;23.382;2023-11-21T01:12:13;5.80;;;4.87;;
10005;SDS011;5042;42.626;23.382;2023-11-21T01:14:42;5.40;;;4.60;;
10005;SDS011;5042;42.626;23.382;2023-11-21T01:17:10;4.23;;;3.47;;
10005;SDS011;5042;42.626;23.382;2023-11-21T01:19:37;5.00;;;3.53;;
10005;SDS011;5042;42.626;23.382;2023-11-21T01:22:03;4.37;;;3.63;;
10005;SDS011;5042;42.626;23.382;2023-11-21T01:24:32;3.87;;;3.30;;
10005;SDS011;5042;42.626;23.382;2023-11-21T01:26:58;3.40;;;3.10;;
10005;SDS011;5042;42.626;23.382;2023-11-21T01:29:25;3.67;;;3.30;;
10005;SDS011;5042;42.626;23.382;2023-11-21T01:31:53;3.37;;;3.07;;
10005;SDS011;5042;42.626;23.382;2023-11-21T01:34:19;3.67;;;3.27;;
10005;SDS011;5042;42.626;23.382;2023-11-21T01:36:46;3.33;;;2.80;;
10005;SDS011;5042;42.626;23.382;2023-11-21T01:39:13;3.57;;;3.20;;
10005;SDS011;5042;42.626;23.382;2023-11-21T01:41:42;3.90;;;3.27;;
10005;SDS011;5042;42.626;23.382;2023-11-21T01:44:10;3.63;;;3.33;;
10005;SDS011;5042;42.626;23.382;2023-11-21T01:46:38;4.50;;;3.30;;
10005;SDS011;5042;42.626;23.382;2023-11-21T01:49:05;3.13;;;2.83;;
10005;SDS011;5042;42.626;23.382;2023-11-21T01:51:32;3.60;;;3.23;;
10005;SDS011;5042;42.626;23.382;2023-11-21T01:53:59;3.70;;;3.30;;
10005;SDS011;5042;42.626;23.382;2023-11-21T01:56:26;4.17;;;3.17;;
10005;SDS011;5042;42.626;23.382;2023-11-21T01:58:54;5.77;;;3.30;;
10005;SDS011;5042;42.626;23.382;2023-11-21T02:01:22;3.80;;;3.47;;
10005;SDS011;5042;42.626;23.382;2023-11-21T02:03:48;5.17;;;4.40;;
10005;SDS011;5042;42.626;23.382;2023-11-21T02:06:15;5.27;;;4.73;;
10005;SDS011;5042;42.626;23.382;2023-11-21T02:08:42;6.80;;;5.27;;
10005;SDS011;5042;42.626;23.382;2023-11-21T02:11:09;6.60;;;5.37;;
10005;SDS011;5042;42.626;23.382;2023-11-21T02:13:38;7.83;;;6.10;;
10005;SDS011;5042;42.626;23.382;2023-11-21T02:16:09;5.83;;;5.23;;
10005;SDS011;5042;42.626;23.382;2023-11-21T02:18:37;7.30;;;5.53;;
10005;SDS011;5042;42.626;23.382;2023-11-21T02:21:04;4.13;;;3.70;;
10005;SDS011;5042;42.626;23.382;2023-11-21T02:23:33;6.50;;;4.83;;
10005;SDS011;5042;42.626;23.382;2023-11-21T02:25:59;4.80;;;4.30;;
10005;SDS011;5042;42.626;23.382;2023-11-21T02:28:29;4.30;;;3.80;;
10005;SDS011;5042;42.626;23.382;2023-11-21T02:30:56;3.87;;;3.20;;
10005;SDS011;5042;42.626;23.382;2023-11-21T02:33:24;4.53;;;3.00;;
10005;SDS011;5042;42.626;23.382;2023-11-21T02:35:51;4.47;;;3.53;;
10005;SDS011;5042;42.626;23.382;2023-11-21T02:38:19;3.47;;;3.17;;
10005;SDS011;5042;42.626;23.382;2023-11-21T02:40:48;3.90;;;3.23;;
10005;SDS011;5042;42.626;23.382;2023-11-21T02:43:15;3.80;;;3.50;;
10005;SDS011;5042;42.626;23.382;2023-11-21T02:45:42;3.53;;;3.23;;
10005;SDS011;5042;42.626;23.382;2023-11-21T02:48:08;4.23;;;3.27;;
10005;SDS011;5042;42.626;23.382;2023-11-21T02:50:35;4.10;;;3.60;;
10005;SDS011;5042;42.626;23.382;2023-11-21T02:53:02;7.37;;;4.60;;
10005;SDS011;5042;42.626;23.382;2023-11-21T02:55:31;15.10;;;9.60;;
10005;SDS011;5042;42.626;23.382;2023-11-21T02:58:01;9.53;;;6.33;;
10005;SDS011;5042;42.626;23.382;2023-11-21T03:00:28;10.70;;;7.40;;
10005;SDS011;5042;42.626;23.382;2023-11-21T03:02:55;5.93;;;5.27;;
10005;SDS011;5042;42.626;23.382;2023-11-21T03:05:22;5.77;;;4.30;;
10005;SDS011;5042;42.626;23.382;2023-11-21T03:07:49;5.07;;;4.30;;
10005;SDS011;5042;42.626;23.382;2023-11-21T03:10:16;8.07;;;5.47;;
10005;SDS011;5042;42.626;23.382;2023-11-21T03:12:43;5.10;;;3.97;;
10005;SDS011;5042;42.626;23.382;2023-11-21T03:15:11;4.47;;;3.80;;
10005;SDS011;5042;42.626;23.382;2023-11-21T03:17:39;5.27;;;4.23;;
10005;SDS011;5042;42.626;23.382;2023-11-21T03:20:06;5.07;;;3.77;;
10005;SDS011;5042;42.626;23.382;2023-11-21T03:22:36;4.60;;;3.53;;
10005;SDS011;5042;42.626;23.382;2023-11-21T03:25:03;4.23;;;3.47;;
10005;SDS011;5042;42.626;23.382;2023-11-21T03:27:31;4.40;;;3.63;;
10005;SDS011;5042;42.626;23.382;2023-11-21T03:29:58;4.17;;;3.50;;
10005;SDS011;5042;42.626;23.382;2023-11-21T03:32:26;4.37;;;3.23;;
10005;SDS011;5042;42.626;23.382;2023-11-21T03:34:53;4.83;;;3.67;;
10005;SDS011;5042;42.626;23.382;2023-11-21T03:37:21;5.40;;;3.80;;
10005;SDS011;5042;42.626;23.382;2023-11-21T03:39:48;5.60;;;3.67;;
10005;SDS011;5042;42.626;23.382;2023-11-21T03:42:15;4.47;;;3.23;;
10005;SDS011;5042;42.626;23.382;2023-11-21T03:44:42;6.53;;;4.07;;
10005;SDS011;5042;42.626;23.382;2023-11-21T03:47:09;5.53;;;4.00;;
10005;SDS011;5042;42.626;23.382;2023-11-21T03:49:37;4.73;;;3.83;;
10005;SDS011;5042;42.626;23.382;2023-11-21T03:52:05;5.03;;;3.93;;
10005;SDS011;5042;42.626;23.382;2023-11-21T03:54:32;6.27;;;4.50;;
10005;SDS011;5042;42.626;23.382;2023-11-21T03:57:01;11.77;;;9.13;;
10005;SDS011;5042;42.626;23.382;2023-11-21T03:59:28;12.47;;;9.87;;
10005;SDS011;5042;42.626;23.382;2023-11-21T04:01:55;13.00;;;10.20;;
10005;SDS011;5042;42.626;23.382;2023-11-21T04:04:22;10.57;;;8.63;;
10005;SDS011;5042;42.626;23.382;2023-11-21T04:06:50;10.57;;;8.47;;
10005;SDS011;5042;42.626;23.382;2023-11-21T04:09:18;13.43;;;8.83;;
10005;SDS011;5042;42.626;23.382;2023-11-21T04:11:45;12.50;;;9.70;;
10005;SDS011;5042;42.626;23.382;2023-11-21T04:14:12;14.10;;;11.13;;
10005;SDS011;5042;42.626;23.382;2023-11-21T04:16:40;12.00;;;9.47;;
10005;SDS011;5042;42.626;23.382;2023-11-21T04:19:07;10.60;;;7.70;;
10005;SDS011;5042;42.626;23.382;2023-11-21T04:21:35;8.83;;;7.20;;
10005;SDS011;5042;42.626;23.382;2023-11-21T04:24:04;8.60;;;5.50;;
10005;SDS011;5042;42.626;23.382;2023-11-21T04:26:31;6.23;;;5.50;;
10005;SDS011;5042;42.626;23.382;2023-11-21T04:28:58;7.10;;;4.97;;
10005;SDS011;5042;42.626;23.382;2023-11-21T04:31:25;7.43;;;4.80;;
10005;SDS011;5042;42.626;23.382;2023-11-21T04:33:52;5.70;;;5.10;;
10005;SDS011;5042;42.626;23.382;2023-11-21T04:36:19;5.27;;;4.77;;
10005;SDS011;5042;42.626;23.382;2023-11-21T04:38:46;7.07;;;4.87;;
10005;SDS011;5042;42.626;23.382;2023-11-21T04:41:14;5.20;;;4.50;;
10005;SDS011;5042;42.626;23.382;2023-11-21T04:43:41;4.63;;;4.23;;
10005;SDS011;5042;42.626;23.382;2023-11-21T04:46:08;5.40;;;4.90;;
10005;SDS011;5042;42.626;23.382;2023-11-21T04:48:35;8.17;;;5.17;;
10005;SDS011;5042;42.626;23.382;2023-11-21T04:51:02;7.03;;;5.37;;
10005;SDS011;5042;42.626;23.382;2023-11-21T04:53:30;7.50;;;5.43;;
10005;SDS011;5042;42.626;23.382;2023-11-21T04:55:57;5.43;;;4.93;;
10005;SDS011;5042;42.626;23.382;2023-11-21T04:58:25;4.93;;;4.33;;
10005;SDS011;5042;42.626;23.382;2023-11-21T05:00:52;4.70;;;4.00;;
10005;SDS011;5042;42.626;23.382;2023-11-21T05:03:19;4.40;;;4.00;;
10005;SDS011;5042;42.626;23.382;2023-11-21T05:05:45;4.00;;;3.63;;
10005;SDS011;5042;42.626;23.382;2023-11-21T05:08:12;4.77;;;4.00;;
10005;SDS011;5042;42.626;23.382;2023-11-21T05:10:39;4.17;;;3.77;;
10005;SDS011;5042;42.626;23.382;2023-11-21T05:13:06;4.30;;;3.90;;
10005;SDS011;5042;42.626;23.382;2023-11-21T05:15:37;4.23;;;3.83;;
10005;SDS011;5042;42.626;23.382;2023-11-21T05:18:04;5.70;;;4.07;;
10005;SDS011;5042;42.626;23.382;2023-11-21T05:20:31;4.70;;;3.93;;
10005;SDS011;5042;42.626;23.382;2023-11-21T05:22:58;4.93;;;4.10;;
10005;SDS011;5042;42.626;23.382;2023-11-21T05:25:25;4.63;;;3.93;;
10005;SDS011;5042;42.626;23.382;2023-11-21T05:27:52;5.53;;;4.33;;
10005;SDS011;5042;42.626;23.382;2023-11-21T05:30:19;5.47;;;4.17;;
10005;SDS011;5042;42.626;23.382;2023-11-21T05:32:48;5.23;;;4.40;;
10005;SDS011;5042;42.626;23.382;2023-11-21T05:35:15;4.47;;;4.00;;
10005;SDS011;5042;42.626;23.382;2023-11-21T05:37:43;5.93;;;3.80;;
10005;SDS011;5042;42.626;23.382;2023-11-21T05:40:10;4.27;;;3.73;;
10005;SDS011;5042;42.626;23.382;2023-11-21T05:42:38;4.37;;;3.97;;
10005;SDS011;5042;42.626;23.382;2023-11-21T05:45:07;4.80;;;4.27;;
10005;SDS011;5042;42.626;23.382;2023-11-21T05:47:36;5.10;;;4.50;;
10005;SDS011;5042;42.626;23.382;2023-11-21T05:50:06;6.13;;;4.40;;
10005;SDS011;5042;42.626;23.382;2023-11-21T05:52:37;6.73;;;4.43;;
10005;SDS011;5042;42.626;23.382;2023-11-21T05:55:04;5.00;;;4.50;;
10005;SDS011;5042;42.626;23.382;2023-11-21T05:57:32;5.13;;;4.50;;
10005;SDS011;5042;42.626;23.382;2023-11-21T06:00:01;8.83;;;4.67;;
10005;SDS011;5042;42.626;23.382;2023-11-21T06:02:36;4.73;;;4.23;;
10005;SDS011;5042;42.626;23.382;2023-11-21T06:05:03;4.77;;;4.20;;
10005;SDS011;5042;42.626;23.382;2023-11-21T06:07:32;6.83;;;4.43;;
10005;SDS011;5042;42.626;23.382;2023-11-21T06:10:00;8.20;;;4.73;;
10005;SDS011;5042;42.626;23.382;2023-11-21T06:12:28;7.23;;;4.80;;
10005;SDS011;5042;42.626;23.382;2023-11-21T06:14:56;6.17;;;4.50;;
10005;SDS011;5042;42.626;23.382;2023-11-21T06:17:23;5.40;;;4.60;;
10005;SDS011;5042;42.626;23.382;2023-11-21T06:19:50;5.67;;;4.63;;
10005;SDS011;5042;42.626;23.382;2023-11-21T06:22:19;5.13;;;4.23;;
10005;SDS011;5042;42.626;23.382;2023-11-21T06:24:46;4.93;;;4.10;;
10005;SDS011;5042;42.626;23.382;2023-11-21T06:27:13;7.53;;;5.20;;
10005;SDS011;5042;42.626;23.382;2023-11-21T06:29:41;7.60;;;5.47;;
10005;SDS011;5042;42.626;23.382;2023-11-21T06:32:08;7.93;;;5.50;;
10005;SDS011;5042;42.626;23.382;2023-11-21T06:34:35;7.97;;;6.20;;
10005;SDS011;5042;42.626;23.382;2023-11-21T06:37:02;10.13;;;8.53;;
10005;SDS011;5042;42.626;23.382;2023-11-21T06:39:30;15.83;;;11.73;;
10005;SDS011;5042;42.626;23.382;2023-11-21T06:41:57;16.43;;;13.53;;
10005;SDS011;5042;42.626;23.382;2023-11-21T06:44:25;21.53;;;16.00;;
10005;SDS011;5042;42.626;23.382;2023-11-21T06:46:52;24.20;;;18.03;;
10005;SDS011;5042;42.626;23.382;2023-11-21T06:49:19;25.43;;;18.60;;
10005;SDS011;5042;42.626;23.382;2023-11-21T06:51:45;22.90;;;17.93;;
10005;SDS011;5042;42.626;23.382;2023-11-21T06:54:12;26.47;;;20.60;;
10005;SDS011;5042;42.626;23.382;2023-11-21T06:56:41;27.40;;;21.83;;
10005;SDS011;5042;42.626;23.382;2023-11-21T06:59:08;25.57;;;20.57;;
10005;SDS011;5042;42.626;23.382;2023-11-21T07:01:35;21.77;;;18.17;;
10005;SDS011;5042;42.626;23.382;2023-11-21T07:04:04;20.13;;;16.27;;
10005;SDS011;5042;42.626;23.382;2023-11-21T07:06:31;22.97;;;17.73;;
10005;SDS011;5042;42.626;23.382;2023-11-21T07:08:59;24.23;;;17.63;;
10005;SDS011;5042;42.626;23.382;2023-11-21T07:11:26;24.17;;;16.53;;
10005;SDS011;5042;42.626;23.382;2023-11-21T07:13:54;20.37;;;14.93;;
10005;SDS011;5042;42.626;23.382;2023-11-21T07:16:21;18.83;;;15.20;;
10005;SDS011;5042;42.626;23.382;2023-11-21T07:18:49;19.40;;;15.07;;
10005;SDS011;5042;42.626;23.382;2023-11-21T07:21:15;19.37;;;14.20;;
10005;SDS011;5042;42.626;23.382;2023-11-21T07:23:42;17.87;;;14.20;;
10005;SDS011;5042;42.626;23.382;2023-11-21T07:26:09;16.63;;;11.70;;
10005;SDS011;5042;42.626;23.382;2023-11-21T07:28:36;12.17;;;10.23;;
10005;SDS011;5042;42.626;23.382;2023-11-21T07:31:05;10.47;;;8.53;;
10005;SDS011;5042;42.626;23.382;2023-11-21T07:33:31;9.67;;;8.10;;
10005;SDS011;5042;42.626;23.382;2023-11-21T07:35:58;11.50;;;8.80;;
10005;SDS011;5042;42.626;23.382;2023-11-21T07:38:26;12.27;;;9.13;;
10005;SDS011;5042;42.626;23.382;2023-11-21T07:40:53;10.60;;;8.70;;
10005;SDS011;5042;42.626;23.382;2023-11-21T07:43:20;11.93;;;8.70;;
10005;SDS011;5042;42.626;23.382;2023-11-21T07:45:47;12.60;;;8.87;;
10005;SDS011;5042;42.626;23.382;2023-11-21T07:48:15;12.63;;;9.87;;
10005;SDS011;5042;42.626;23.382;2023-11-21T07:50:42;12.77;;;9.50;;
10005;SDS011;5042;42.626;23.382;2023-11-21T07:53:09;12.90;;;10.20;;
10005;SDS011;5042;42.626;23.382;2023-11-21T07:55:36;12.60;;;8.97;;
10005;SDS011;5042;42.626;23.382;2023-11-21T07:58:03;14.83;;;10.03;;
10005;SDS011;5042;42.626;23.382;2023-11-21T08:00:29;16.50;;;10.07;;
10005;SDS011;5042;42.626;23.382;2023-11-21T08:02:56;16.50;;;10.03;;
10005;SDS011;5042;42.626;23.382;2023-11-21T08:05:24;11.27;;;9.63;;
10005;SDS011;5042;42.626;23.382;2023-11-21T08:07:51;11.80;;;8.93;;
10005;SDS011;5042;42.626;23.382;2023-11-21T08:10:18;12.30;;;9.37;;
10005;SDS011;5042;42.626;23.382;2023-11-21T08:12:46;13.37;;;9.63;;
10005;SDS011;5042;42.626;23.382;2023-11-21T08:15:13;16.00;;;10.47;;
10005;SDS011;5042;42.626;23.382;2023-11-21T08:17:40;14.20;;;10.37;;
10005;SDS011;5042;42.626;23.382;2023-11-21T08:20:07;16.50;;;10.50;;
10005;SDS011;5042;42.626;23.382;2023-11-21T08:22:38;16.00;;;9.67;;
10005;SDS011;5042;42.626;23.382;2023-11-21T08:25:06;14.80;;;9.60;;
10005;SDS011;5042;42.626;23.382;2023-11-21T08:27:33;16.90;;;10.47;;
10005;SDS011;5042;42.626;23.382;2023-11-21T08:30:00;14.13;;;9.87;;
10005;SDS011;5042;42.626;23.382;2023-11-21T08:32:28;15.20;;;10.40;;
10005;SDS011;5042;42.626;23.382;2023-11-21T08:34:55;13.90;;;11.00;;
10005;SDS011;5042;42.626;23.382;2023-11-21T08:37:22;14.27;;;10.77;;
10005;SDS011;5042;42.626;23.382;2023-11-21T08:39:50;17.50;;;11.27;;
10005;SDS011;5042;42.626;23.382;2023-11-21T08:42:18;15.97;;;11.50;;
10005;SDS011;5042;42.626;23.382;2023-11-21T08:44:44;14.43;;;11.53;;
10005;SDS011;5042;42.626;23.382;2023-11-21T08:47:11;15.73;;;11.10;;
10005;SDS011;5042;42.626;23.382;2023-11-21T08:49:39;13.77;;;10.40;;
10005;SDS011;5042;42.626;23.382;2023-11-21T08:52:06;16.43;;;11.53;;
10005;SDS011;5042;42.626;23.382;2023-11-21T08:54:32;18.60;;;12.20;;
10005;SDS011;5042;42.626;23.382;2023-11-21T08:57:01;15.87;;;12.10;;
10005;SDS011;5042;42.626;23.382;2023-11-21T08:59:28;13.03;;;11.13;;
10005;SDS011;5042;42.626;23.382;2023-11-21T09:01:55;17.33;;;11.70;;
10005;SDS011;5042;42.626;23.382;2023-11-21T09:04:22;15.17;;;11.43;;
10005;SDS011;5042;42.626;23.382;2023-11-21T09:06:49;16.30;;;11.33;;
10005;SDS011;5042;42.626;23.382;2023-11-21T09:09:16;14.03;;;10.70;;
10005;SDS011;5042;42.626;23.382;2023-11-21T09:11:44;13.40;;;11.37;;
10005;SDS011;5042;42.626;23.382;2023-11-21T09:14:15;22.27;;;16.13;;
10005;SDS011;5042;42.626;23.382;2023-11-21T09:16:43;20.57;;;16.17;;
10005;SDS011;5042;42.626;23.382;2023-11-21T09:19:08;32.70;;;17.50;;
10005;SDS011;5042;42.626;23.382;2023-11-21T09:21:37;19.87;;;16.27;;
10005;SDS011;5042;42.626;23.382;2023-11-21T09:24:04;22.30;;;17.70;;
10005;SDS011;5042;42.626;23.382;2023-11-21T09:26:31;21.33;;;17.30;;
10005;SDS011;5042;42.626;23.382;2023-11-21T09:28:58;24.47;;;18.80;;
10005;SDS011;5042;42.626;23.382;2023-11-21T09:31:26;20.00;;;16.53;;
10005;SDS011;5042;42.626;23.382;2023-11-21T09:33:53;21.77;;;17.30;;
10005;SDS011;5042;42.626;23.382;2023-11-21T09:36:20;23.20;;;17.43;;
10005;SDS011;5042;42.626;23.382;2023-11-21T09:38:52;21.40;;;17.00;;
10005;SDS011;5042;42.626;23.382;2023-11-21T09:41:21;23.17;;;16.73;;
10005;SDS011;5042;42.626;23.382;2023-11-21T09:44:00;22.10;;;15.90;;
10005;SDS011;5042;42.626;23.382;2023-11-21T09:46:36;21.80;;;15.77;;
10005;SDS011;5042;42.626;23.382;2023-11-21T09:49:06;19.73;;;14.77;;
10005;SDS011;5042;42.626;23.382;2023-11-21T09:51:38;18.27;;;14.57;;
10005;SDS011;5042;42.626;23.382;2023-11-21T09:54:08;18.90;;;14.53;;
10005;SDS011;5042;42.626;23.382;2023-11-21T09:56:36;18.93;;;14.47;;
10005;SDS011;5042;42.626;23.382;2023-11-21T09:59:03;19.67;;;14.30;;
10005;SDS011;5042;42.626;23.382;2023-11-21T10:01:37;20.83;;;14.80;;
10005;SDS011;5042;42.626;23.382;2023-11-21T10:04:06;17.33;;;13.30;;
10005;SDS011;5042;42.626;23.382;2023-11-21T10:06:37;15.17;;;13.03;;
10005;SDS011;5042;42.626;23.382;2023-11-21T10:09:05;17.63;;;13.70;;
10005;SDS011;5042;42.626;23.382;2023-11-21T10:11:36;16.77;;;12.30;;
10005;SDS011;5042;42.626;23.382;2023-11-21T10:14:06;14.43;;;11.77;;
10005;SDS011;5042;42.626;23.382;2023-11-21T10:16:39;17.40;;;12.13;;
10005;SDS011;5042;42.626;23.382;2023-11-21T10:19:07;14.33;;;11.73;;
10005;SDS011;5042;42.626;23.382;2023-11-21T10:21:41;13.07;;;11.43;;
10005;SDS011;5042;42.626;23.382;2023-11-21T10:24:08;16.77;;;11.97;;
10005;SDS011;5042;42.626;23.382;2023-11-21T10:26:35;14.30;;;11.07;;
10005;SDS011;5042;42.626;23.382;2023-11-21T10:29:03;13.30;;;10.13;;
10005;SDS011;5042;42.626;23.382;2023-11-21T10:31:30;11.17;;;10.03;;
10005;SDS011;5042;42.626;23.382;2023-11-21T10:34:13;13.87;;;11.17;;
10005;SDS011;5042;42.626;23.382;2023-11-21T10:36:40;12.03;;;10.73;;
10005;SDS011;5042;42.626;23.382;2023-11-21T10:39:07;14.87;;;11.00;;
10005;SDS011;5042;42.626;23.382;2023-11-21T10:41:35;13.23;;;9.63;;
10005;SDS011;5042;42.626;23.382;2023-11-21T10:44:02;11.37;;;9.37;;
10005;SDS011;5042;42.626;23.382;2023-11-21T10:46:32;12.07;;;10.33;;
10005;SDS011;5042;42.626;23.382;2023-11-21T10:48:59;13.40;;;10.93;;
10005;SDS011;5042;42.626;23.382;2023-11-21T10:51:28;12.27;;;10.97;;
10005;SDS011;5042;42.626;23.382;2023-11-21T10:53:55;14.97;;;11.03;;
10005;SDS011;5042;42.626;23.382;2023-11-21T10:56:23;16.37;;;11.87;;
10005;SDS011;5042;42.626;23.382;2023-11-21T10:58:50;12.50;;;11.20;;
10005;SDS011;5042;42.626;23.382;2023-11-21T11:01:17;15.03;;;11.53;;
10005;SDS011;5042;42.626;23.382;2023-11-21T11:03:46;15.33;;;12.00;;
10005;SDS011;5042;42.626;23.382;2023-11-21T11:06:13;16.30;;;12.00;;
10005;SDS011;5042;42.626;23.382;2023-11-21T11:08:42;14.00;;;11.80;;
10005;SDS011;5042;42.626;23.382;2023-11-21T11:11:10;21.17;;;13.57;;
10005;SDS011;5042;42.626;23.382;2023-11-21T11:13:39;18.57;;;13.87;;
10005;SDS011;5042;42.626;23.382;2023-11-21T11:16:10;14.63;;;12.87;;
10005;SDS011;5042;42.626;23.382;2023-11-21T11:18:42;18.20;;;13.13;;
10005;SDS011;5042;42.626;23.382;2023-11-21T11:21:11;18.57;;;14.00;;
10005;SDS011;5042;42.626;23.382;2023-11-21T11:24:00;20.70;;;14.77;;
10005;SDS011;5042;42.626;23.382;2023-11-21T11:26:46;17.40;;;13.10;;
10005;SDS011;5042;42.626;23.382;2023-11-21T11:29:20;18.40;;;13.00;;
10005;SDS011;5042;42.626;23.382;2023-11-21T11:31:57;18.53;;;14.07;;
10005;SDS011;5042;42.626;23.382;2023-11-21T11:34:35;20.07;;;14.17;;
10005;SDS011;5042;42.626;23.382;2023-11-21T11:37:08;19.50;;;14.17;;
10005;SDS011;5042;42.626;23.382;2023-11-21T11:39:38;22.70;;;15.03;;
10005;SDS011;5042;42.626;23.382;2023-11-21T11:42:07;19.97;;;15.17;;
10005;SDS011;5042;42.626;23.382;2023-11-21T11:44:51;21.07;;;15.20;;
10005;SDS011;5042;42.626;23.382;2023-11-21T11:47:21;19.80;;;16.00;;
10005;SDS011;5042;42.626;23.382;2023-11-21T11:49:57;19.50;;;15.17;;
10005;SDS011;5042;42.626;23.382;2023-11-21T11:52:32;22.27;;;14.30;;
10005;SDS011;5042;42.626;23.382;2023-11-21T11:55:05;21.60;;;14.93;;
10005;SDS011;5042;42.626;23.382;2023-11-21T11:57:35;17.40;;;13.47;;
10005;SDS011;5042;42.626;23.382;2023-11-21T12:00:11;17.40;;;14.07;;
10005;SDS011;5042;42.626;23.382;2023-11-21T12:02:44;18.37;;;14.13;;
10005;SDS011;5042;42.626;23.382;2023-11-21T12:05:13;17.47;;;13.70;;
10005;SDS011;5042;42.626;23.382;2023-11-21T12:07:44;18.17;;;13.10;;
10005;SDS011;5042;42.626;23.382;2023-11-21T12:10:14;21.50;;;14.20;;
10005;SDS011;5042;42.626;23.382;2023-11-21T12:12:43;21.97;;;14.10;;
10005;SDS011;5042;42.626;23.382;2023-11-21T12:15:11;19.00;;;15.13;;
10005;SDS011;5042;42.626;23.382;2023-11-21T12:17:39;19.73;;;14.50;;
10005;SDS011;5042;42.626;23.382;2023-11-21T12:20:06;22.77;;;16.90;;
10005;SDS011;5042;42.626;23.382;2023-11-21T12:22:41;21.07;;;14.70;;
10005;SDS011;5042;42.626;23.382;2023-11-21T12:25:09;17.90;;;15.87;;
10005;SDS011;5042;42.626;23.382;2023-11-21T12:27:41;19.50;;;14.63;;
10005;SDS011;5042;42.626;23.382;2023-11-21T12:30:11;20.57;;;14.37;;
10005;SDS011;5042;42.626;23.382;2023-11-21T12:32:40;23.27;;;15.27;;
10005;SDS011;5042;42.626;23.382;2023-11-21T12:35:08;19.47;;;15.50;;
10005;SDS011;5042;42.626;23.382;2023-11-21T12:37:36;17.77;;;15.33;;
10005;SDS011;5042;42.626;23.382;2023-11-21T12:40:04;20.27;;;17.30;;
10005;SDS011;5042;42.626;23.382;2023-11-21T12:42:32;20.27;;;16.53;;
10005;SDS011;5042;42.626;23.382;2023-11-21T12:45:17;23.30;;;18.77;;
10005;SDS011;5042;42.626;23.382;2023-11-21T12:47:46;22.63;;;17.93;;
10005;SDS011;5042;42.626;23.382;2023-11-21T12:50:13;21.90;;;17.60;;
10005;SDS011;5042;42.626;23.382;2023-11-21T12:52:41;24.70;;;19.13;;
10005;SDS011;5042;42.626;23.382;2023-11-21T12:55:13;24.53;;;19.33;;
10005;SDS011;5042;42.626;23.382;2023-11-21T12:57:43;23.83;;;20.50;;
10005;SDS011;5042;42.626;23.382;2023-11-21T13:00:13;30.93;;;21.77;;
10005;SDS011;5042;42.626;23.382;2023-11-21T13:02:52;27.43;;;20.73;;
10005;SDS011;5042;42.626;23.382;2023-11-21T13:05:24;29.13;;;21.77;;
10005;SDS011;5042;42.626;23.382;2023-11-21T13:07:51;28.10;;;22.03;;
10005;SDS011;5042;42.626;23.382;2023-11-21T13:10:19;30.97;;;22.17;;
10005;SDS011;5042;42.626;23.382;2023-11-21T13:12:50;26.47;;;21.77;;
10005;SDS011;5042;42.626;23.382;2023-11-21T13:15:19;31.77;;;22.13;;
10005;SDS011;5042;42.626;23.382;2023-11-21T13:17:46;27.63;;;21.80;;
10005;SDS011;5042;42.626;23.382;2023-11-21T13:20:15;31.20;;;22.73;;
10005;SDS011;5042;42.626;23.382;2023-11-21T13:22:48;27.63;;;21.97;;
10005;SDS011;5042;42.626;23.382;2023-11-21T13:25:19;33.40;;;22.63;;
10005;SDS011;5042;42.626;23.382;2023-11-21T13:27:46;29.70;;;22.10;;
10005;SDS011;5042;42.626;23.382;2023-11-21T13:30:13;26.60;;;21.80;;
10005;SDS011;5042;42.626;23.382;2023-11-21T13:32:43;28.37;;;22.37;;
10005;SDS011;5042;42.626;23.382;2023-11-21T13:35:11;30.57;;;21.83;;
10005;SDS011;5042;42.626;23.382;2023-11-21T13:37:46;29.07;;;21.37;;
10005;SDS011;5042;42.626;23.382;2023-11-21T13:40:17;30.33;;;21.97;;
10005;SDS011;5042;42.626;23.382;2023-11-21T13:42:48;34.37;;;23.10;;
10005;SDS011;5042;42.626;23.382;2023-11-21T13:45:18;31.20;;;22.17;;
10005;SDS011;5042;42.626;23.382;2023-11-21T13:47:49;31.20;;;22.27;;
10005;SDS011;5042;42.626;23.382;2023-11-21T13:50:22;30.17;;;22.63;;
10005;SDS011;5042;42.626;23.382;2023-11-21T13:52:54;30.20;;;23.17;;
10005;SDS011;5042;42.626;23.382;2023-11-21T13:55:21;34.50;;;23.77;;
10005;SDS011;5042;42.626;23.382;2023-11-21T13:57:50;30.47;;;23.73;;
10005;SDS011;5042;42.626;23.382;2023-11-21T14:00:17;30.60;;;23.50;;
10005;SDS011;5042;42.626;23.382;2023-11-21T14:03:11;34.50;;;25.33;;
10005;SDS011;5042;42.626;23.382;2023-11-21T14:05:47;32.53;;;24.23;;
10005;SDS011;5042;42.626;23.382;2023-11-21T14:08:17;37.87;;;26.27;;
10005;SDS011;5042;42.626;23.382;2023-11-21T14:10:46;32.50;;;24.67;;
10005;SDS011;5042;42.626;23.382;2023-11-21T14:13:16;33.23;;;25.43;;
10005;SDS011;5042;42.626;23.382;2023-11-21T14:15:43;37.27;;;25.67;;
10005;SDS011;5042;42.626;23.382;2023-11-21T14:18:13;32.83;;;24.33;;
10005;SDS011;5042;42.626;23.382;2023-11-21T14:20:42;36.83;;;26.23;;
10005;SDS011;5042;42.626;23.382;2023-11-21T14:23:09;34.13;;;24.70;;
10005;SDS011;5042;42.626;23.382;2023-11-21T14:25:37;34.37;;;26.27;;
10005;SDS011;5042;42.626;23.382;2023-11-21T14:28:04;33.60;;;24.73;;
10005;SDS011;5042;42.626;23.382;2023-11-21T14:30:31;38.00;;;26.13;;
10005;SDS011;5042;42.626;23.382;2023-11-21T14:33:01;35.53;;;25.00;;
10005;SDS011;5042;42.626;23.382;2023-11-21T14:35:29;33.77;;;25.57;;
10005;SDS011;5042;42.626;23.382;2023-11-21T14:37:57;36.40;;;26.33;;
10005;SDS011;5042;42.626;23.382;2023-11-21T14:40:25;36.10;;;27.33;;